Time;durP1;ratioP1;P1;durP2;ratioP2;P2;SDS_P1;SDS_P2;PMS_P1;PMS_P2;Temp;Humidity;BMP_temperature;BMP_pressure;BME280_temperature;BME280_humidity;BME280_pressure;Samples;Min_cycle;Max_cycle;Signal;HPM_P1;HPM_P2
2023/06/02 00:01:17;;;;;;;;;;;19.10;99.90;;;;;;5093989;28;19908;-40
2023/06/02 00:03:44;;;;;;;;;;;19.10;99.90;;;;;;5093866;28;19931;-40
2023/06/02 00:06:11;;;;;;;;;;;19.10;99.90;;;;;;5093520;28;19931;-40
2023/06/02 00:08:38;;;;;;;;;;;19.10;99.90;;;;;;5093663;28;19916;-41
2023/06/02 00:11:05;;;;;;;;;;;19.00;99.90;;;;;;5093894;28;19908;-40
2023/06/02 00:13:31;;;;;;;;;;;19.00;99.90;;;;;;5093682;28;20002;-39
2023/06/02 00:15:57;;;;;;;;;;;19.10;99.90;;;;;;5093570;28;20049;-40
2023/06/02 00:18:22;;;;;;;;;;;19.00;99.90;;;;;;5094062;28;19939;-40
2023/06/02 00:20:49;;;;;;;;;;;19.00;99.90;;;;;;5093748;28;20297;-40
2023/06/02 00:23:15;;;;;;;;;;;19.00;99.90;;;;;;5093789;28;19917;-40
2023/06/02 00:25:40;;;;;;;;;;;19.00;99.90;;;;;;5093466;28;19908;-40
2023/06/02 00:28:06;;;;;;;;;;;19.00;99.90;;;;;;5093052;28;19915;-40
2023/06/02 00:30:33;;;;;;;;;;;19.00;99.90;;;;;;5093424;28;19912;-40
2023/06/02 00:32:58;;;;;;;;;;;19.00;99.90;;;;;;5093537;28;19912;-40
2023/06/02 00:35:24;;;;;;;;;;;19.00;99.90;;;;;;5093388;28;19976;-40
2023/06/02 00:37:50;;;;;;;;;;;19.00;99.90;;;;;;5092861;28;20285;-39
2023/06/02 00:40:15;;;;;;;;;;;19.00;99.90;;;;;;5093284;28;19943;-40
2023/06/02 00:42:41;;;;;;;;;;;19.00;99.90;;;;;;5093128;28;20007;-40
2023/06/02 00:45:07;;;;;;;;;;;19.00;99.90;;;;;;5093051;28;19951;-40
2023/06/02 00:47:32;;;;;;;;;;;19.00;99.90;;;;;;5092538;28;19915;-40
2023/06/02 00:49:58;;;;;;;;;;;19.00;99.90;;;;;;5093012;28;20368;-40
2023/06/02 00:52:24;;;;;;;;;;;18.90;99.90;;;;;;5093033;28;19908;-40
2023/06/02 00:54:50;;;;;;;;;;;19.00;99.90;;;;;;5092913;28;19943;-40
2023/06/02 00:57:16;;;;;;;;;;;19.00;99.90;;;;;;5092369;28;19947;-41
2023/06/02 00:59:43;;;;;;;;;;;18.90;99.90;;;;;;5092917;28;19908;-40
2023/06/02 01:02:10;;;;;;;;;;;18.90;99.90;;;;;;5092841;28;19909;-40
2023/06/02 01:04:36;;;;;;;;;;;18.90;99.90;;;;;;5092716;28;19912;-39
2023/06/02 01:07:02;;;;;;;;;;;18.90;99.90;;;;;;5092759;28;20289;-40
2023/06/02 01:09:29;;;;;;;;;;;18.90;99.90;;;;;;5093002;28;19966;-40
2023/06/02 01:11:55;;;;;;;;;;;18.90;99.90;;;;;;5092658;28;19919;-40
2023/06/02 01:14:20;;;;;;;;;;;18.90;99.90;;;;;;5092599;28;19934;-40
2023/06/02 01:16:49;;;;;;;;;;;18.90;99.90;;;;;;5091998;28;19912;-40
2023/06/02 01:19:20;;;;;;;;;;;18.90;99.90;;;;;;5092580;28;19912;-41
2023/06/02 01:21:47;;;;;;;;;;;18.90;99.90;;;;;;5092605;28;19908;-40
2023/06/02 01:24:14;;;;;;;;;;;18.80;99.90;;;;;;5092335;28;19908;-40
2023/06/02 01:26:40;;;;;;;;;;;18.90;99.90;;;;;;5092002;28;20438;-39
2023/06/02 01:29:07;;;;;;;;;;;18.90;99.90;;;;;;5092140;28;19916;-39
2023/06/02 01:31:34;;;;;;;;;;;18.80;99.90;;;;;;5092478;28;19939;-40
2023/06/02 01:34:00;;;;;;;;;;;18.90;99.90;;;;;;5092295;28;19915;-40
2023/06/02 01:36:27;;;;;;;;;;;18.80;99.90;;;;;;5091820;28;19908;-40
2023/06/02 01:38:53;;;;;;;;;;;18.80;99.90;;;;;;5092127;28;19979;-40
2023/06/02 01:41:18;;;;;;;;;;;18.80;99.90;;;;;;5092200;28;20365;-40
2023/06/02 01:43:44;;;;;;;;;;;18.80;99.90;;;;;;5092023;28;19915;-40
2023/06/02 01:46:11;;;;;;;;;;;18.80;99.90;;;;;;5092131;28;19908;-40
2023/06/02 01:48:36;;;;;;;;;;;18.80;99.90;;;;;;5091961;28;19908;-40
2023/06/02 01:51:02;;;;;;;;;;;18.80;99.90;;;;;;5091997;28;20473;-40
2023/06/02 01:53:27;;;;;;;;;;;18.80;99.90;;;;;;5091742;28;19919;-40
2023/06/02 01:55:53;;;;;;;;;;;18.80;99.90;;;;;;5091108;28;19916;-40
2023/06/02 01:58:19;;;;;;;;;;;18.80;99.90;;;;;;5092060;28;19961;-40
2023/06/02 02:00:45;;;;;;;;;;;18.80;99.90;;;;;;5091811;28;19908;-41
2023/06/02 02:03:12;;;;;;;;;;;18.70;99.90;;;;;;5091737;28;19908;-40
2023/06/02 02:05:37;;;;;;;;;;;18.80;99.90;;;;;;5091782;28;20125;-42
2023/06/02 02:08:04;;;;;;;;;;;18.80;99.90;;;;;;5091397;28;19962;-40
2023/06/02 02:10:30;;;;;;;;;;;18.80;99.90;;;;;;5091702;28;19916;-40
2023/06/02 02:12:55;;;;;;;;;;;18.80;99.90;;;;;;5092578;28;19941;-39
2023/06/02 02:15:21;;;;;;;;;;;18.70;99.90;;;;;;5091583;28;19991;-40
2023/06/02 02:17:47;;;;;;;;;;;18.80;99.90;;;;;;5091183;28;20381;-40
2023/06/02 02:20:14;;;;;;;;;;;18.70;99.90;;;;;;5091715;28;19908;-41
2023/06/02 02:22:39;;;;;;;;;;;18.70;99.90;;;;;;5091529;28;19908;-40
2023/06/02 02:25:05;;;;;;;;;;;18.70;99.90;;;;;;5091525;28;19912;-40
2023/06/02 02:27:30;;;;;;;;;;;18.70;99.90;;;;;;5091035;28;19909;-40
2023/06/02 02:29:57;;;;;;;;;;;18.60;99.90;;;;;;5091516;28;20094;-40
2023/06/02 02:32:22;;;;;;;;;;;18.70;99.90;;;;;;5091616;28;20155;-39
2023/06/02 02:34:48;;;;;;;;;;;18.70;99.90;;;;;;5091360;28;19908;-40
2023/06/02 02:37:13;;;;;;;;;;;18.60;99.90;;;;;;5090872;28;20053;-40
2023/06/02 02:39:39;;;;;;;;;;;18.60;99.90;;;;;;5091947;28;19961;-40
2023/06/02 02:42:05;;;;;;;;;;;18.70;99.90;;;;;;5091893;28;20392;-40
2023/06/02 02:44:30;;;;;;;;;;;18.60;99.90;;;;;;5091491;28;20288;-40
2023/06/02 02:46:58;;;;;;;;;;;18.70;99.90;;;;;;5090873;28;20387;-41
2023/06/02 02:49:24;;;;;;;;;;;18.60;99.90;;;;;;5091248;28;20331;-41
2023/06/02 02:51:49;;;;;;;;;;;18.60;99.90;;;;;;5091485;28;19908;-39
2023/06/02 02:54:16;;;;;;;;;;;18.60;99.90;;;;;;5091246;28;19908;-39
2023/06/02 02:56:43;;;;;;;;;;;18.60;99.90;;;;;;5090729;28;19912;-40
2023/06/02 02:59:09;;;;;;;;;;;18.60;99.90;;;;;;5091241;28;19919;-40
2023/06/02 03:01:35;;;;;;;;;;;18.60;99.90;;;;;;5091276;28;19909;-40
2023/06/02 03:04:01;;;;;;;;;;;18.50;99.90;;;;;;5091061;28;20010;-40
2023/06/02 03:06:31;;;;;;;;;;;18.50;99.90;;;;;;5090609;28;19916;-40
2023/06/02 03:08:58;;;;;;;;;;;18.50;99.90;;;;;;5094243;28;19920;-40
2023/06/02 03:11:23;;;;;;;;;;;18.60;99.90;;;;;;5095068;28;19912;-40
2023/06/02 03:13:49;;;;;;;;;;;18.60;99.90;;;;;;5095164;28;19916;-40
2023/06/02 03:16:16;;;;;;;;;;;18.50;99.90;;;;;;5094465;28;20398;-40
2023/06/02 03:18:41;;;;;;;;;;;18.50;99.90;;;;;;5094783;28;19915;-39
2023/06/02 03:21:07;;;;;;;;;;;18.50;99.90;;;;;;5094901;28;19912;-40
2023/06/02 03:23:33;;;;;;;;;;;18.60;99.90;;;;;;5095085;28;20265;-41
2023/06/02 03:26:00;;;;;;;;;;;18.60;99.90;;;;;;5094746;28;19912;-39
2023/06/02 03:28:25;;;;;;;;;;;18.50;99.90;;;;;;5094507;28;19908;-40
2023/06/02 03:30:51;;;;;;;;;;;18.50;99.90;;;;;;5094514;28;19957;-39
2023/06/02 03:33:16;;;;;;;;;;;18.50;99.90;;;;;;5094502;28;19908;-40
2023/06/02 03:35:42;;;;;;;;;;;18.50;99.90;;;;;;5094387;28;20323;-40
2023/06/02 03:38:07;;;;;;;;;;;18.50;99.90;;;;;;5094662;28;20006;-41
2023/06/02 03:40:33;;;;;;;;;;;18.50;99.90;;;;;;5094437;28;19908;-42
2023/06/02 03:42:59;;;;;;;;;;;18.50;99.90;;;;;;5094401;28;20022;-40
2023/06/02 03:45:24;;;;;;;;;;;18.50;99.90;;;;;;5094274;28;19908;-40
2023/06/02 03:47:50;;;;;;;;;;;18.50;99.90;;;;;;5093726;28;19954;-40
2023/06/02 03:50:15;;;;;;;;;;;18.50;99.90;;;;;;5094163;28;20384;-40
2023/06/02 03:52:41;;;;;;;;;;;18.50;99.90;;;;;;5094334;28;20354;-39
2023/06/02 03:55:07;;;;;;;;;;;18.50;99.90;;;;;;5094232;28;20346;-40
2023/06/02 03:57:32;;;;;;;;;;;18.50;99.90;;;;;;5093718;28;20266;-40
2023/06/02 03:59:58;;;;;;;;;;;18.50;99.90;;;;;;5094163;28;20398;-40
2023/06/02 04:02:23;;;;;;;;;;;18.40;99.90;;;;;;5094016;28;19909;-40
2023/06/02 04:04:49;;;;;;;;;;;18.50;99.90;;;;;;5093910;28;19967;-40
2023/06/02 04:07:14;;;;;;;;;;;18.40;99.90;;;;;;5093259;28;19908;-40
2023/06/02 04:09:40;;;;;;;;;;;18.50;99.90;;;;;;5094278;28;19938;-40
2023/06/02 04:12:06;;;;;;;;;;;18.40;99.90;;;;;;5093773;28;19919;-39
2023/06/02 04:14:33;;;;;;;;;;;18.40;99.90;;;;;;5093726;28;19908;-39
2023/06/02 04:16:58;;;;;;;;;;;18.50;99.90;;;;;;5093246;28;19912;-40
2023/06/02 04:19:24;;;;;;;;;;;18.40;99.90;;;;;;5093219;28;20285;-42
2023/06/02 04:21:49;;;;;;;;;;;18.50;99.90;;;;;;5093764;28;20376;-40
2023/06/02 04:24:15;;;;;;;;;;;18.50;99.90;;;;;;5093546;28;20387;-40
2023/06/02 04:26:40;;;;;;;;;;;18.40;99.90;;;;;;5093039;28;19920;-40
2023/06/02 04:29:06;;;;;;;;;;;18.40;99.90;;;;;;5093544;28;19916;-41
2023/06/02 04:31:42;;;;;;;;;;;18.50;99.90;;;;;;5093398;28;19912;-40
2023/06/02 04:34:09;;;;;;;;;;;18.50;99.90;;;;;;5093784;28;19908;-40
2023/06/02 04:36:36;;;;;;;;;;;18.50;99.90;;;;;;5092893;28;20378;-39
2023/06/02 04:39:02;;;;;;;;;;;18.40;99.90;;;;;;5093280;28;20015;-41
2023/06/02 04:41:28;;;;;;;;;;;18.40;99.90;;;;;;5093243;28;19955;-40
2023/06/02 04:43:54;;;;;;;;;;;18.40;99.90;;;;;;5093125;28;19909;-40
2023/06/02 04:46:20;;;;;;;;;;;18.40;99.90;;;;;;5092769;28;20384;-39
2023/06/02 04:48:45;;;;;;;;;;;18.40;99.90;;;;;;5093561;28;19908;-42
2023/06/02 04:51:11;;;;;;;;;;;18.50;99.90;;;;;;5093278;28;19919;-40
2023/06/02 04:53:36;;;;;;;;;;;18.40;99.90;;;;;;5092976;28;19915;-41
2023/06/02 04:56:02;;;;;;;;;;;18.40;99.90;;;;;;5092546;28;20462;-40
2023/06/02 04:58:28;;;;;;;;;;;18.40;99.90;;;;;;5092811;28;20010;-41
2023/06/02 05:00:53;;;;;;;;;;;18.40;99.90;;;;;;5092797;28;20049;-40
2023/06/02 05:03:19;;;;;;;;;;;18.40;99.90;;;;;;5092744;28;19908;-41
2023/06/02 05:05:44;;;;;;;;;;;18.40;99.90;;;;;;5092516;28;19909;-40
2023/06/02 05:08:10;;;;;;;;;;;18.40;99.90;;;;;;5092432;28;19916;-40
2023/06/02 05:10:35;;;;;;;;;;;18.40;99.90;;;;;;5092702;28;20350;-40
2023/06/02 05:13:01;;;;;;;;;;;18.40;99.90;;;;;;5092659;28;19982;-40
2023/06/02 05:15:27;;;;;;;;;;;18.40;99.90;;;;;;5092452;28;19908;-39
2023/06/02 05:17:53;;;;;;;;;;;18.40;99.90;;;;;;5092724;28;19912;-39
2023/06/02 05:20:18;;;;;;;;;;;18.40;99.90;;;;;;5092591;28;19958;-40
2023/06/02 05:22:44;;;;;;;;;;;18.50;99.90;;;;;;5092674;28;19912;-40
2023/06/02 05:25:09;;;;;;;;;;;18.40;99.90;;;;;;5092384;28;19912;-40
2023/06/02 05:27:36;;;;;;;;;;;18.40;99.90;;;;;;5091950;28;20025;-41
2023/06/02 05:30:01;;;;;;;;;;;18.50;99.90;;;;;;5091431;28;19912;-40
2023/06/02 05:32:27;;;;;;;;;;;18.40;99.90;;;;;;5092321;28;19908;-39
2023/06/02 05:34:52;;;;;;;;;;;18.50;99.90;;;;;;5092773;28;19915;-39
2023/06/02 05:37:18;;;;;;;;;;;18.50;99.90;;;;;;5091698;28;20460;-40
2023/06/02 05:39:44;;;;;;;;;;;18.50;99.90;;;;;;5092175;28;19954;-40
2023/06/02 05:42:10;;;;;;;;;;;18.40;99.90;;;;;;5092155;28;19947;-40
2023/06/02 05:44:35;;;;;;;;;;;18.50;99.90;;;;;;5091956;28;19912;-39
2023/06/02 05:47:01;;;;;;;;;;;18.50;99.90;;;;;;5091595;28;20257;-40
2023/06/02 05:49:26;;;;;;;;;;;18.50;99.90;;;;;;5091930;28;20379;-40
2023/06/02 05:51:52;;;;;;;;;;;18.50;99.90;;;;;;5092006;28;19915;-40
2023/06/02 05:54:17;;;;;;;;;;;18.50;99.90;;;;;;5091850;28;19998;-40
2023/06/02 05:56:43;;;;;;;;;;;18.50;99.90;;;;;;5091852;28;19915;-40
2023/06/02 05:59:08;;;;;;;;;;;18.50;99.90;;;;;;5091827;28;20003;-40
2023/06/02 06:01:34;;;;;;;;;;;18.50;99.90;;;;;;5091881;28;19912;-40
2023/06/02 06:03:59;;;;;;;;;;;18.50;99.90;;;;;;5091766;28;19908;-40
2023/06/02 06:06:25;;;;;;;;;;;18.50;99.90;;;;;;5091774;28;19914;-40
2023/06/02 06:08:50;;;;;;;;;;;18.50;99.90;;;;;;5092057;28;19930;-40
2023/06/02 06:11:16;;;;;;;;;;;18.50;99.90;;;;;;5091750;28;19965;-40
2023/06/02 06:13:42;;;;;;;;;;;18.50;99.90;;;;;;5091567;28;19957;-40
2023/06/02 06:16:07;;;;;;;;;;;18.50;99.90;;;;;;5091254;28;19959;-39
2023/06/02 06:18:33;;;;;;;;;;;18.60;99.90;;;;;;5091669;28;19911;-40
2023/06/02 06:20:58;;;;;;;;;;;18.50;99.90;;;;;;5090383;28;19919;-40
2023/06/02 06:23:25;;;;;;;;;;;18.60;99.90;;;;;;5091656;28;19913;-40
2023/06/02 06:25:50;;;;;;;;;;;18.60;99.90;;;;;;5091112;28;19908;-43
2023/06/02 06:28:16;;;;;;;;;;;18.60;99.90;;;;;;5091645;28;19930;-40
2023/06/02 06:30:41;;;;;;;;;;;18.60;99.90;;;;;;5091400;28;19919;-40
2023/06/02 06:33:08;;;;;;;;;;;18.60;99.90;;;;;;5091438;28;20032;-40
2023/06/02 06:35:34;;;;;;;;;;;18.60;99.90;;;;;;5091807;28;20419;-39
2023/06/02 06:38:01;;;;;;;;;;;18.60;99.90;;;;;;5090934;28;19912;-40
2023/06/02 06:40:26;;;;;;;;;;;18.60;99.90;;;;;;5091427;28;19909;-40
2023/06/02 06:42:52;;;;;;;;;;;18.60;99.90;;;;;;5094394;28;19908;-41
2023/06/02 06:45:18;;;;;;;;;;;18.60;99.90;;;;;;5095276;28;19940;-40
2023/06/02 06:47:43;;;;;;;;;;;18.60;99.90;;;;;;5094997;28;20748;-40
2023/06/02 06:50:09;;;;;;;;;;;18.70;99.90;;;;;;5095329;28;19916;-40
2023/06/02 06:52:34;;;;;;;;;;;18.70;99.90;;;;;;5096007;28;19916;-40
2023/06/02 06:55:00;;;;;;;;;;;18.60;99.90;;;;;;5094870;28;20110;-39
2023/06/02 06:57:25;;;;;;;;;;;18.60;99.90;;;;;;5094708;28;19912;-40
2023/06/02 06:59:51;;;;;;;;;;;18.70;99.90;;;;;;5095182;28;19908;-40
2023/06/02 07:02:16;;;;;;;;;;;18.70;99.90;;;;;;5095315;28;20346;-41
2023/06/02 07:04:42;;;;;;;;;;;18.70;99.90;;;;;;5095060;28;20378;-40
2023/06/02 07:07:08;;;;;;;;;;;18.70;99.90;;;;;;5095186;28;20405;-40
2023/06/02 07:09:33;;;;;;;;;;;18.70;99.90;;;;;;5094977;28;20070;-41
2023/06/02 07:11:59;;;;;;;;;;;18.70;99.90;;;;;;5094981;28;20384;-40
2023/06/02 07:14:25;;;;;;;;;;;18.60;99.90;;;;;;5094880;28;19912;-40
2023/06/02 07:16:54;;;;;;;;;;;18.70;99.90;;;;;;5094484;28;20396;-40
2023/06/02 07:19:20;;;;;;;;;;;18.70;99.90;;;;;;5094882;28;19908;-40
2023/06/02 07:21:46;;;;;;;;;;;18.70;99.90;;;;;;5094838;28;20301;-39
2023/06/02 07:24:11;;;;;;;;;;;18.70;99.90;;;;;;5094777;28;19909;-40
2023/06/02 07:26:37;;;;;;;;;;;18.70;99.90;;;;;;5094131;28;19912;-40
2023/06/02 07:29:02;;;;;;;;;;;18.70;99.90;;;;;;5094547;28;20365;-40
2023/06/02 07:31:28;;;;;;;;;;;18.80;99.90;;;;;;5094642;28;19947;-40
2023/06/02 07:33:54;;;;;;;;;;;18.80;99.90;;;;;;5094584;28;19931;-39
2023/06/02 07:36:19;;;;;;;;;;;18.80;99.90;;;;;;5093990;28;19939;-41
2023/06/02 07:38:45;;;;;;;;;;;18.80;99.90;;;;;;5094418;28;19908;-40
2023/06/02 07:41:10;;;;;;;;;;;18.80;99.90;;;;;;5094333;28;19914;-40
2023/06/02 07:43:36;;;;;;;;;;;18.80;99.90;;;;;;5094309;28;20005;-39
2023/06/02 07:46:01;;;;;;;;;;;18.70;99.90;;;;;;5094467;28;19961;-41
2023/06/02 07:48:27;;;;;;;;;;;18.80;99.90;;;;;;5094229;28;19912;-41
2023/06/02 07:50:52;;;;;;;;;;;18.80;99.90;;;;;;5094195;28;19912;-40
2023/06/02 07:53:18;;;;;;;;;;;18.80;99.90;;;;;;5093218;28;19913;-42
2023/06/02 07:55:44;;;;;;;;;;;18.80;99.90;;;;;;5093822;28;19908;-40
2023/06/02 07:58:10;;;;;;;;;;;18.80;99.90;;;;;;5093858;28;19912;-39
2023/06/02 08:00:38;;;;;;;;;;;18.80;99.90;;;;;;5094890;28;19915;-41
2023/06/02 08:03:03;;;;;;;;;;;18.80;99.90;;;;;;5094040;28;19912;-41
2023/06/02 08:05:29;;;;;;;;;;;18.80;99.90;;;;;;5094158;28;19915;-41
2023/06/02 08:07:54;;;;;;;;;;;18.80;99.90;;;;;;5093474;28;19923;-40
2023/06/02 08:10:20;;;;;;;;;;;18.80;99.90;;;;;;5093963;28;20262;-43
2023/06/02 08:12:45;;;;;;;;;;;18.80;99.90;;;;;;5093941;28;19957;-40
2023/06/02 08:15:11;;;;;;;;;;;18.80;99.90;;;;;;5093872;28;19939;-40
2023/06/02 08:17:37;;;;;;;;;;;18.80;99.90;;;;;;5093320;28;19915;-40
2023/06/02 08:20:03;;;;;;;;;;;18.80;99.90;;;;;;5093746;28;20381;-40
2023/06/02 08:22:30;;;;;;;;;;;18.90;99.90;;;;;;5093639;28;20010;-42
2023/06/02 08:24:56;;;;;;;;;;;18.90;99.90;;;;;;5093530;28;19912;-41
2023/06/02 08:27:22;;;;;;;;;;;18.90;99.90;;;;;;5092978;28;19909;-40
2023/06/02 08:29:51;;;;;;;;;;;18.90;99.90;;;;;;5093480;28;19916;-41
2023/06/02 08:32:17;;;;;;;;;;;18.90;99.90;;;;;;5093584;28;19908;-40
2023/06/02 08:34:47;;;;;;;;;;;18.90;99.90;;;;;;5093362;28;19915;-40
2023/06/02 08:37:16;;;;;;;;;;;18.90;99.90;;;;;;5091506;28;19908;-39
2023/06/02 08:39:45;;;;;;;;;;;19.00;99.90;;;;;;5093209;28;20258;-40
2023/06/02 08:42:12;;;;;;;;;;;19.00;99.90;;;;;;5093236;28;19914;-40
2023/06/02 08:44:38;;;;;;;;;;;19.00;99.90;;;;;;5093391;28;19908;-40
2023/06/02 08:47:06;;;;;;;;;;;19.00;99.90;;;;;;5092697;28;19953;-40
2023/06/02 08:49:34;;;;;;;;;;;19.00;99.90;;;;;;5093074;28;19934;-40
2023/06/02 08:52:01;;;;;;;;;;;19.00;99.90;;;;;;5092928;28;19912;-40
2023/06/02 08:54:27;;;;;;;;;;;19.00;99.90;;;;;;5092925;28;20373;-41
2023/06/02 08:56:57;;;;;;;;;;;19.00;99.90;;;;;;5093077;28;19908;-41
2023/06/02 08:59:23;;;;;;;;;;;19.00;99.90;;;;;;5093133;28;19916;-42
2023/06/02 09:01:49;;;;;;;;;;;19.10;99.90;;;;;;5092949;28;19919;-41
2023/06/02 09:04:16;;;;;;;;;;;19.10;99.90;;;;;;5092785;28;19908;-39
2023/06/02 09:06:42;;;;;;;;;;;19.10;99.90;;;;;;5092135;28;19943;-39
2023/06/02 09:09:08;;;;;;;;;;;19.10;99.90;;;;;;5092683;28;20133;-39
2023/06/02 09:11:33;;;;;;;;;;;19.10;99.90;;;;;;5092772;28;20013;-40
2023/06/02 09:13:59;;;;;;;;;;;19.10;99.90;;;;;;5092651;28;20006;-40
2023/06/02 09:16:38;;;;;;;;;;;19.20;99.90;;;;;;5092138;28;19912;-39
2023/06/02 09:19:04;;;;;;;;;;;19.20;99.90;;;;;;5092510;28;19908;-40
2023/06/02 09:21:32;;;;;;;;;;;19.20;99.90;;;;;;5092457;28;19919;-39
2023/06/02 09:23:58;;;;;;;;;;;19.30;99.90;;;;;;5092439;28;19914;-40
2023/06/02 09:26:26;;;;;;;;;;;19.30;99.90;;;;;;5091868;28;19984;-40
2023/06/02 09:29:05;;;;;;;;;;;19.30;99.90;;;;;;5092331;28;19955;-40
2023/06/02 09:31:44;;;;;;;;;;;19.30;99.90;;;;;;5092346;28;19912;-39
2023/06/02 09:34:10;;;;;;;;;;;19.40;99.90;;;;;;5092243;28;19965;-39
2023/06/02 09:36:36;;;;;;;;;;;19.40;99.90;;;;;;5092672;28;20019;-39
2023/06/02 09:39:03;;;;;;;;;;;19.40;99.90;;;;;;5092277;28;20350;-38
2023/06/02 09:41:30;;;;;;;;;;;19.40;99.90;;;;;;5092126;28;20390;-38
2023/06/02 09:43:56;;;;;;;;;;;19.40;99.90;;;;;;5092083;28;20292;-39
2023/06/02 09:46:23;;;;;;;;;;;19.40;99.90;;;;;;5091416;28;20270;-39
2023/06/02 09:48:55;;;;;;;;;;;19.50;99.90;;;;;;5092135;28;20377;-39
2023/06/02 09:51:25;;;;;;;;;;;19.40;99.90;;;;;;5092041;28;19908;-39
2023/06/02 09:53:50;;;;;;;;;;;19.40;99.90;;;;;;5091936;28;19908;-41
2023/06/02 09:56:18;;;;;;;;;;;19.50;99.90;;;;;;5092297;28;19931;-39
2023/06/02 09:58:43;;;;;;;;;;;19.50;99.90;;;;;;5091823;28;19961;-40
2023/06/02 10:01:12;;;;;;;;;;;19.50;99.90;;;;;;5091900;28;20426;-39
2023/06/02 10:03:41;;;;;;;;;;;19.50;99.90;;;;;;5091715;28;19953;-38
2023/06/02 10:06:13;;;;;;;;;;;19.50;99.90;;;;;;5091532;28;19916;-40
2023/06/02 10:08:49;;;;;;;;;;;19.50;99.90;;;;;;5091761;28;19920;-41
2023/06/02 10:11:19;;;;;;;;;;;19.50;99.90;;;;;;5091706;28;20424;-39
2023/06/02 10:14:04;;;;;;;;;;;19.50;99.90;;;;;;5092148;28;20332;-40
2023/06/02 10:16:44;;;;;;;;;;;19.50;99.90;;;;;;5090829;28;20280;-38
2023/06/02 10:19:25;;;;;;;;;;;19.50;99.90;;;;;;5091663;28;19977;-38
2023/06/02 10:21:54;;;;;;;;;;;19.60;99.90;;;;;;5091595;28;20640;-40
2023/06/02 10:24:38;;;;;;;;;;;19.60;99.90;;;;;;5091907;28;20281;-40
2023/06/02 10:27:03;;;;;;;;;;;19.60;99.90;;;;;;5091046;28;19911;-40
2023/06/02 10:29:30;;;;;;;;;;;19.60;99.90;;;;;;5091475;28;20270;-39
2023/06/02 10:31:56;;;;;;;;;;;19.60;99.90;;;;;;5091538;28;19916;-39
2023/06/02 10:34:34;;;;;;;;;;;19.60;99.90;;;;;;5091288;28;20397;-40
2023/06/02 10:36:59;;;;;;;;;;;19.60;99.90;;;;;;5090987;28;20388;-39
2023/06/02 10:39:34;;;;;;;;;;;19.60;99.90;;;;;;5091408;28;19908;-40
2023/06/02 10:42:10;;;;;;;;;;;19.60;99.90;;;;;;5091424;28;20262;-39
2023/06/02 10:44:35;;;;;;;;;;;19.60;99.90;;;;;;5091447;28;19944;-40
2023/06/02 10:47:20;;;;;;;;;;;19.60;99.90;;;;;;5090857;28;19996;-39
2023/06/02 10:50:05;;;;;;;;;;;19.60;99.90;;;;;;5091267;28;19918;-38
2023/06/02 10:52:31;;;;;;;;;;;19.60;99.90;;;;;;5091295;28;19947;-40
2023/06/02 10:55:12;;;;;;;;;;;19.60;99.90;;;;;;5091124;28;19915;-39
2023/06/02 10:57:50;;;;;;;;;;;19.60;99.90;;;;;;5090736;28;19927;-39
2023/06/02 11:00:29;;;;;;;;;;;19.70;99.90;;;;;;5091256;28;19909;-40
2023/06/02 11:02:54;;;;;;;;;;;19.70;99.90;;;;;;5091155;28;19977;-39
2023/06/02 11:05:26;;;;;;;;;;;19.70;99.90;;;;;;5091037;28;20312;-39
2023/06/02 11:08:21;;;;;;;;;;;19.70;99.90;;;;;;5090615;28;19918;-39
2023/06/02 11:10:55;;;;;;;;;;;19.70;99.90;;;;;;5091558;28;19912;-39
2023/06/02 11:13:22;;;;;;;;;;;19.70;99.90;;;;;;5091186;28;19931;-40
2023/06/02 11:15:50;;;;;;;;;;;19.70;99.90;;;;;;5090644;28;19934;-41
2023/06/02 11:18:21;;;;;;;;;;;19.70;99.90;;;;;;5090919;28;20385;-39
2023/06/02 11:20:49;;;;;;;;;;;19.70;99.90;;;;;;5091092;28;19908;-40
2023/06/02 11:23:15;;;;;;;;;;;19.70;99.90;;;;;;5091044;28;19944;-39
2023/06/02 11:25:41;;;;;;;;;;;19.70;99.90;;;;;;5090972;28;19943;-40
2023/06/02 11:28:15;;;;;;;;;;;19.70;99.90;;;;;;5090554;28;19938;-38
2023/06/02 11:30:40;;;;;;;;;;;19.70;99.90;;;;;;5095085;28;19916;-40
2023/06/02 11:33:07;;;;;;;;;;;19.70;99.90;;;;;;5094601;28;20429;-39
2023/06/02 11:35:32;;;;;;;;;;;19.70;99.90;;;;;;5094914;28;20285;-38
2023/06/02 11:38:01;;;;;;;;;;;19.70;99.90;;;;;;5094332;28;19919;-39
2023/06/02 11:40:27;;;;;;;;;;;19.70;99.90;;;;;;5094546;28;19908;-39
2023/06/02 11:42:53;;;;;;;;;;;19.70;99.90;;;;;;5094416;28;19984;-40
2023/06/02 11:45:22;;;;;;;;;;;19.70;99.90;;;;;;5094409;28;20349;-38
2023/06/02 11:47:55;;;;;;;;;;;19.70;99.90;;;;;;5093792;28;19915;-38
2023/06/02 11:50:20;;;;;;;;;;;19.80;99.90;;;;;;5094295;28;19923;-39
2023/06/02 11:52:46;;;;;;;;;;;19.80;99.90;;;;;;5094286;28;19913;-39
2023/06/02 11:55:12;;;;;;;;;;;19.70;99.90;;;;;;5094202;28;19955;-41
2023/06/02 11:57:37;;;;;;;;;;;19.70;99.90;;;;;;5093616;28;19908;-40
2023/06/02 12:00:09;;;;;;;;;;;19.70;99.90;;;;;;5094379;28;20307;-41
2023/06/02 12:02:39;;;;;;;;;;;19.80;99.90;;;;;;5094119;28;20277;-39
2023/06/02 12:05:30;;;;;;;;;;;19.80;99.90;;;;;;5094506;28;19969;-40
2023/06/02 12:07:56;;;;;;;;;;;19.80;99.90;;;;;;5093378;28;20409;-38
2023/06/02 12:10:29;;;;;;;;;;;19.80;99.90;;;;;;5094008;28;19923;-39
2023/06/02 12:12:54;;;;;;;;;;;19.80;99.90;;;;;;5094050;28;19947;-39
2023/06/02 12:15:20;;;;;;;;;;;19.80;99.90;;;;;;5093859;28;20426;-42
2023/06/02 12:17:46;;;;;;;;;;;19.80;99.90;;;;;;5093516;28;19908;-40
2023/06/02 12:20:11;;;;;;;;;;;19.80;99.90;;;;;;5093789;28;19918;-39
2023/06/02 12:22:53;;;;;;;;;;;19.90;99.90;;;;;;5093961;28;19915;-40
2023/06/02 12:25:20;;;;;;;;;;;19.90;99.90;;;;;;5093617;28;20353;-38
2023/06/02 12:27:46;;;;;;;;;;;19.90;99.90;;;;;;5094037;28;20285;-40
2023/06/02 12:30:13;;;;;;;;;;;19.90;99.90;;;;;;5093666;28;20006;-39
2023/06/02 12:32:38;;;;;;;;;;;19.90;99.90;;;;;;5093560;28;19939;-39
2023/06/02 12:35:04;;;;;;;;;;;19.90;99.90;;;;;;5093332;28;19923;-40
2023/06/02 12:37:30;;;;;;;;;;;20.00;99.90;;;;;;5093256;28;19908;-39
2023/06/02 12:39:55;;;;;;;;;;;19.90;99.90;;;;;;5093032;28;20265;-39
2023/06/02 12:42:21;;;;;;;;;;;20.00;99.90;;;;;;5093342;28;19909;-40
2023/06/02 12:44:48;;;;;;;;;;;20.00;99.90;;;;;;5093222;28;20002;-40
2023/06/02 12:47:15;;;;;;;;;;;20.00;99.90;;;;;;5092777;28;19912;-39
2023/06/02 12:49:40;;;;;;;;;;;20.00;99.90;;;;;;5093083;28;20281;-38
2023/06/02 12:52:06;;;;;;;;;;;20.00;99.90;;;;;;5093407;28;19908;-39
2023/06/02 12:54:32;;;;;;;;;;;20.00;99.90;;;;;;5093100;28;19915;-40
2023/06/02 12:56:57;;;;;;;;;;;20.00;99.90;;;;;;5092998;28;19912;-39
2023/06/02 12:59:23;;;;;;;;;;;20.00;99.90;;;;;;5092933;28;20285;-39
2023/06/02 13:01:48;;;;;;;;;;;20.00;99.90;;;;;;5092932;28;19923;-41
2023/06/02 13:04:14;;;;;;;;;;;20.00;99.90;;;;;;5092777;28;19965;-39
2023/06/02 13:06:40;;;;;;;;;;;20.00;99.90;;;;;;5092323;28;20007;-39
2023/06/02 13:09:05;;;;;;;;;;;19.90;99.90;;;;;;5092757;28;20003;-40
2023/06/02 13:11:31;;;;;;;;;;;20.00;99.90;;;;;;5092791;28;19908;-40
2023/06/02 13:13:58;;;;;;;;;;;20.00;99.90;;;;;;5092646;28;19908;-40
2023/06/02 13:16:25;;;;;;;;;;;20.00;99.90;;;;;;5092333;28;19962;-39
2023/06/02 13:18:51;;;;;;;;;;;20.00;99.90;;;;;;5092561;28;19919;-39
2023/06/02 13:21:17;;;;;;;;;;;19.90;99.90;;;;;;5092850;28;20281;-39
2023/06/02 13:23:50;;;;;;;;;;;19.90;99.90;;;;;;5093333;28;20003;-40
2023/06/02 13:26:15;;;;;;;;;;;19.90;99.90;;;;;;5092231;28;19912;-39
2023/06/02 13:28:41;;;;;;;;;;;19.90;99.90;;;;;;5092405;28;19930;-39
2023/06/02 13:31:07;;;;;;;;;;;19.90;99.90;;;;;;5092359;28;19912;-39
2023/06/02 13:33:33;;;;;;;;;;;19.90;99.90;;;;;;5092225;28;19908;-39
2023/06/02 13:35:59;;;;;;;;;;;19.90;99.90;;;;;;5092040;28;20324;-39
2023/06/02 13:38:24;;;;;;;;;;;19.90;99.90;;;;;;5092191;28;19908;-39
2023/06/02 13:40:50;;;;;;;;;;;20.00;99.90;;;;;;5092221;28;19909;-39
2023/06/02 13:43:16;;;;;;;;;;;20.00;99.90;;;;;;5092099;28;20262;-40
2023/06/02 13:45:41;;;;;;;;;;;20.00;99.90;;;;;;5092508;28;20369;-39
2023/06/02 13:48:08;;;;;;;;;;;20.00;99.90;;;;;;5091958;28;19995;-40
2023/06/02 13:50:33;;;;;;;;;;;20.00;99.90;;;;;;5092159;28;19998;-39
2023/06/02 13:52:59;;;;;;;;;;;20.00;99.90;;;;;;5091560;28;20023;-40
2023/06/02 13:55:26;;;;;;;;;;;20.00;99.90;;;;;;5091915;28;19908;-39
2023/06/02 13:57:51;;;;;;;;;;;19.90;99.90;;;;;;5091435;28;19951;-39
2023/06/02 14:00:17;;;;;;;;;;;20.00;99.90;;;;;;5092357;28;19955;-39
2023/06/02 14:02:43;;;;;;;;;;;20.00;99.90;;;;;;5092197;28;20412;-40
2023/06/02 14:05:08;;;;;;;;;;;20.00;99.90;;;;;;5092134;28;19919;-39
2023/06/02 14:07:34;;;;;;;;;;;20.00;99.90;;;;;;5091265;28;19916;-39
2023/06/02 14:09:59;;;;;;;;;;;20.00;99.90;;;;;;5092626;28;19916;-42
2023/06/02 14:12:27;;;;;;;;;;;20.00;99.90;;;;;;5091099;28;21556;-39
2023/06/02 14:14:52;;;;;;;;;;;20.00;99.90;;;;;;5091633;28;19987;-38